sensor_id;sensor_type;location;lat;lon;timestamp;P1;durP1;ratioP1;P2;durP2;ratioP2
29380;SDS011;16364;52.490;13.326;2024-01-30T00:00:11;9.00;;;5.13;;
29380;SDS011;16364;52.490;13.326;2024-01-30T00:02:37;14.03;;;5.50;;
29380;SDS011;16364;52.490;13.326;2024-01-30T00:05:02;5.63;;;4.87;;
29380;SDS011;16364;52.490;13.326;2024-01-30T00:07:28;7.70;;;4.90;;
29380;SDS011;16364;52.490;13.326;2024-01-30T00:09:53;7.10;;;5.07;;
29380;SDS011;16364;52.490;13.326;2024-01-30T00:12:19;11.47;;;5.60;;
29380;SDS011;16364;52.490;13.326;2024-01-30T00:14:45;8.47;;;5.90;;
29380;SDS011;16364;52.490;13.326;2024-01-30T00:17:10;7.37;;;4.70;;
29380;SDS011;16364;52.490;13.326;2024-01-30T00:19:35;6.00;;;5.40;;
29380;SDS011;16364;52.490;13.326;2024-01-30T00:22:00;7.07;;;4.83;;
29380;SDS011;16364;52.490;13.326;2024-01-30T00:24:26;6.00;;;5.50;;
29380;SDS011;16364;52.490;13.326;2024-01-30T00:26:51;7.07;;;5.03;;
29380;SDS011;16364;52.490;13.326;2024-01-30T00:29:17;8.03;;;6.20;;
29380;SDS011;16364;52.490;13.326;2024-01-30T00:31:44;7.90;;;5.30;;
29380;SDS011;16364;52.490;13.326;2024-01-30T00:34:10;6.77;;;4.40;;
29380;SDS011;16364;52.490;13.326;2024-01-30T00:36:35;9.00;;;5.80;;
29380;SDS011;16364;52.490;13.326;2024-01-30T00:39:00;9.87;;;4.60;;
29380;SDS011;16364;52.490;13.326;2024-01-30T00:41:26;5.00;;;4.50;;
29380;SDS011;16364;52.490;13.326;2024-01-30T00:43:51;10.47;;;5.70;;
29380;SDS011;16364;52.490;13.326;2024-01-30T00:46:17;7.40;;;5.10;;
29380;SDS011;16364;52.490;13.326;2024-01-30T00:48:42;9.67;;;5.30;;
29380;SDS011;16364;52.490;13.326;2024-01-30T00:51:07;10.10;;;5.30;;
29380;SDS011;16364;52.490;13.326;2024-01-30T00:53:32;8.00;;;4.90;;
29380;SDS011;16364;52.490;13.326;2024-01-30T00:55:58;6.23;;;5.30;;
29380;SDS011;16364;52.490;13.326;2024-01-30T00:58:23;7.53;;;4.77;;
29380;SDS011;16364;52.490;13.326;2024-01-30T01:00:48;6.83;;;5.10;;
29380;SDS011;16364;52.490;13.326;2024-01-30T01:03:13;6.90;;;5.10;;
29380;SDS011;16364;52.490;13.326;2024-01-30T01:05:39;7.83;;;4.87;;
29380;SDS011;16364;52.490;13.326;2024-01-30T01:08:04;8.10;;;4.73;;
29380;SDS011;16364;52.490;13.326;2024-01-30T01:10:29;5.67;;;5.10;;
29380;SDS011;16364;52.490;13.326;2024-01-30T01:12:55;5.90;;;4.47;;
29380;SDS011;16364;52.490;13.326;2024-01-30T01:15:20;6.43;;;4.40;;
29380;SDS011;16364;52.490;13.326;2024-01-30T01:17:45;9.93;;;5.40;;
29380;SDS011;16364;52.490;13.326;2024-01-30T01:20:11;10.30;;;6.03;;
29380;SDS011;16364;52.490;13.326;2024-01-30T01:22:37;6.87;;;5.00;;
29380;SDS011;16364;52.490;13.326;2024-01-30T01:25:03;8.10;;;5.50;;
29380;SDS011;16364;52.490;13.326;2024-01-30T01:27:31;10.77;;;6.07;;
29380;SDS011;16364;52.490;13.326;2024-01-30T01:29:58;7.20;;;5.30;;
29380;SDS011;16364;52.490;13.326;2024-01-30T01:32:23;7.23;;;5.60;;
29380;SDS011;16364;52.490;13.326;2024-01-30T01:34:48;7.07;;;5.03;;
29380;SDS011;16364;52.490;13.326;2024-01-30T01:37:14;8.87;;;5.30;;
29380;SDS011;16364;52.490;13.326;2024-01-30T01:39:39;8.57;;;5.63;;
29380;SDS011;16364;52.490;13.326;2024-01-30T01:42:04;8.47;;;5.30;;
29380;SDS011;16364;52.490;13.326;2024-01-30T01:44:29;11.20;;;5.33;;
29380;SDS011;16364;52.490;13.326;2024-01-30T01:46:55;6.80;;;4.63;;
29380;SDS011;16364;52.490;13.326;2024-01-30T01:49:22;7.93;;;5.07;;
29380;SDS011;16364;52.490;13.326;2024-01-30T01:51:47;7.57;;;4.40;;
29380;SDS011;16364;52.490;13.326;2024-01-30T01:54:13;7.70;;;5.57;;
29380;SDS011;16364;52.490;13.326;2024-01-30T01:56:39;5.27;;;4.77;;
29380;SDS011;16364;52.490;13.326;2024-01-30T01:59:05;12.33;;;5.27;;
29380;SDS011;16364;52.490;13.326;2024-01-30T02:01:34;11.30;;;6.10;;
29380;SDS011;16364;52.490;13.326;2024-01-30T02:04:00;7.63;;;5.20;;
29380;SDS011;16364;52.490;13.326;2024-01-30T02:06:26;7.80;;;5.80;;
29380;SDS011;16364;52.490;13.326;2024-01-30T02:08:51;6.43;;;5.00;;
29380;SDS011;16364;52.490;13.326;2024-01-30T02:11:16;5.23;;;4.73;;
29380;SDS011;16364;52.490;13.326;2024-01-30T02:13:42;6.83;;;6.17;;
29380;SDS011;16364;52.490;13.326;2024-01-30T02:16:07;6.87;;;6.03;;
29380;SDS011;16364;52.490;13.326;2024-01-30T02:18:33;9.57;;;5.60;;
29380;SDS011;16364;52.490;13.326;2024-01-30T02:20:58;9.53;;;5.63;;
29380;SDS011;16364;52.490;13.326;2024-01-30T02:23:26;6.13;;;5.13;;
29380;SDS011;16364;52.490;13.326;2024-01-30T02:25:52;6.43;;;5.83;;
29380;SDS011;16364;52.490;13.326;2024-01-30T02:28:18;8.13;;;4.57;;
29380;SDS011;16364;52.490;13.326;2024-01-30T02:30:43;8.27;;;5.30;;
29380;SDS011;16364;52.490;13.326;2024-01-30T02:33:08;7.47;;;5.60;;
29380;SDS011;16364;52.490;13.326;2024-01-30T02:35:33;6.03;;;4.60;;
29380;SDS011;16364;52.490;13.326;2024-01-30T02:37:59;7.67;;;6.43;;
29380;SDS011;16364;52.490;13.326;2024-01-30T02:40:24;9.60;;;6.40;;
29380;SDS011;16364;52.490;13.326;2024-01-30T02:42:49;6.03;;;4.60;;
29380;SDS011;16364;52.490;13.326;2024-01-30T02:45:15;7.73;;;5.60;;
29380;SDS011;16364;52.490;13.326;2024-01-30T02:47:40;10.70;;;6.07;;
29380;SDS011;16364;52.490;13.326;2024-01-30T02:50:05;7.90;;;5.17;;
29380;SDS011;16364;52.490;13.326;2024-01-30T02:52:31;6.17;;;4.87;;
29380;SDS011;16364;52.490;13.326;2024-01-30T02:54:56;8.07;;;5.43;;
29380;SDS011;16364;52.490;13.326;2024-01-30T02:57:22;8.30;;;5.67;;
29380;SDS011;16364;52.490;13.326;2024-01-30T02:59:47;8.40;;;6.50;;
29380;SDS011;16364;52.490;13.326;2024-01-30T03:02:12;10.23;;;5.00;;
29380;SDS011;16364;52.490;13.326;2024-01-30T03:04:40;6.60;;;5.27;;
29380;SDS011;16364;52.490;13.326;2024-01-30T03:07:05;7.53;;;5.93;;
29380;SDS011;16364;52.490;13.326;2024-01-30T03:09:30;4.50;;;4.03;;
29380;SDS011;16364;52.490;13.326;2024-01-30T03:11:55;7.10;;;5.60;;
29380;SDS011;16364;52.490;13.326;2024-01-30T03:14:21;8.90;;;5.70;;
29380;SDS011;16364;52.490;13.326;2024-01-30T03:16:46;7.37;;;5.33;;
29380;SDS011;16364;52.490;13.326;2024-01-30T03:19:11;8.30;;;5.90;;
29380;SDS011;16364;52.490;13.326;2024-01-30T03:21:36;6.80;;;5.90;;
29380;SDS011;16364;52.490;13.326;2024-01-30T03:24:02;5.73;;;5.10;;
29380;SDS011;16364;52.490;13.326;2024-01-30T03:26:27;8.37;;;5.63;;
29380;SDS011;16364;52.490;13.326;2024-01-30T03:28:52;10.80;;;5.90;;
29380;SDS011;16364;52.490;13.326;2024-01-30T03:31:17;7.57;;;5.20;;
29380;SDS011;16364;52.490;13.326;2024-01-30T03:33:43;11.53;;;5.50;;
29380;SDS011;16364;52.490;13.326;2024-01-30T03:36:08;8.00;;;5.10;;
29380;SDS011;16364;52.490;13.326;2024-01-30T03:38:34;9.00;;;5.20;;
29380;SDS011;16364;52.490;13.326;2024-01-30T03:40:59;8.97;;;6.07;;
29380;SDS011;16364;52.490;13.326;2024-01-30T03:43:25;8.13;;;5.20;;
29380;SDS011;16364;52.490;13.326;2024-01-30T03:45:50;7.37;;;5.60;;
29380;SDS011;16364;52.490;13.326;2024-01-30T03:48:15;9.00;;;6.40;;
29380;SDS011;16364;52.490;13.326;2024-01-30T03:50:42;7.33;;;5.37;;
29380;SDS011;16364;52.490;13.326;2024-01-30T03:53:07;8.70;;;6.70;;
29380;SDS011;16364;52.490;13.326;2024-01-30T03:55:33;10.00;;;6.10;;
29380;SDS011;16364;52.490;13.326;2024-01-30T03:57:58;6.70;;;5.60;;
29380;SDS011;16364;52.490;13.326;2024-01-30T04:00:23;9.83;;;6.10;;
29380;SDS011;16364;52.490;13.326;2024-01-30T04:02:49;6.60;;;5.53;;
29380;SDS011;16364;52.490;13.326;2024-01-30T04:05:16;8.80;;;6.00;;
29380;SDS011;16364;52.490;13.326;2024-01-30T04:07:41;7.87;;;6.20;;
29380;SDS011;16364;52.490;13.326;2024-01-30T04:10:06;9.27;;;5.37;;
29380;SDS011;16364;52.490;13.326;2024-01-30T04:12:32;8.90;;;5.20;;
29380;SDS011;16364;52.490;13.326;2024-01-30T04:14:57;6.30;;;5.50;;
29380;SDS011;16364;52.490;13.326;2024-01-30T04:17:22;9.77;;;6.30;;
29380;SDS011;16364;52.490;13.326;2024-01-30T04:19:47;10.27;;;6.33;;
29380;SDS011;16364;52.490;13.326;2024-01-30T04:22:13;8.03;;;5.20;;
29380;SDS011;16364;52.490;13.326;2024-01-30T04:24:38;10.17;;;5.20;;
29380;SDS011;16364;52.490;13.326;2024-01-30T04:27:03;8.17;;;6.20;;
29380;SDS011;16364;52.490;13.326;2024-01-30T04:29:29;10.10;;;6.27;;
29380;SDS011;16364;52.490;13.326;2024-01-30T04:31:54;9.97;;;5.47;;
29380;SDS011;16364;52.490;13.326;2024-01-30T04:34:19;9.77;;;5.47;;
29380;SDS011;16364;52.490;13.326;2024-01-30T04:36:44;5.90;;;5.33;;
29380;SDS011;16364;52.490;13.326;2024-01-30T04:39:10;9.30;;;5.93;;
29380;SDS011;16364;52.490;13.326;2024-01-30T04:41:35;8.93;;;5.50;;
29380;SDS011;16364;52.490;13.326;2024-01-30T04:44:01;8.03;;;5.27;;
29380;SDS011;16364;52.490;13.326;2024-01-30T04:46:26;6.97;;;6.27;;
29380;SDS011;16364;52.490;13.326;2024-01-30T04:48:51;10.03;;;6.60;;
29380;SDS011;16364;52.490;13.326;2024-01-30T04:51:16;6.20;;;5.10;;
29380;SDS011;16364;52.490;13.326;2024-01-30T04:53:42;9.33;;;5.80;;
29380;SDS011;16364;52.490;13.326;2024-01-30T04:56:07;6.47;;;4.80;;
29380;SDS011;16364;52.490;13.326;2024-01-30T04:58:32;6.20;;;5.17;;
29380;SDS011;16364;52.490;13.326;2024-01-30T05:00:57;7.20;;;6.27;;
29380;SDS011;16364;52.490;13.326;2024-01-30T05:03:23;9.40;;;5.70;;
29380;SDS011;16364;52.490;13.326;2024-01-30T05:05:49;8.87;;;6.70;;
29380;SDS011;16364;52.490;13.326;2024-01-30T05:08:14;8.03;;;6.17;;
29380;SDS011;16364;52.490;13.326;2024-01-30T05:10:39;8.50;;;5.40;;
29380;SDS011;16364;52.490;13.326;2024-01-30T05:13:05;7.47;;;5.13;;
29380;SDS011;16364;52.490;13.326;2024-01-30T05:15:30;11.00;;;6.00;;
29380;SDS011;16364;52.490;13.326;2024-01-30T05:17:55;7.83;;;6.70;;
29380;SDS011;16364;52.490;13.326;2024-01-30T05:20:20;12.33;;;6.60;;
29380;SDS011;16364;52.490;13.326;2024-01-30T05:22:46;8.57;;;7.77;;
29380;SDS011;16364;52.490;13.326;2024-01-30T05:25:12;6.07;;;5.43;;
29380;SDS011;16364;52.490;13.326;2024-01-30T05:27:37;6.90;;;5.03;;
29380;SDS011;16364;52.490;13.326;2024-01-30T05:30:02;6.70;;;5.57;;
29380;SDS011;16364;52.490;13.326;2024-01-30T05:32:28;6.93;;;5.60;;
29380;SDS011;16364;52.490;13.326;2024-01-30T05:34:53;10.10;;;6.60;;
29380;SDS011;16364;52.490;13.326;2024-01-30T05:37:18;7.03;;;5.87;;
29380;SDS011;16364;52.490;13.326;2024-01-30T05:39:44;9.43;;;5.70;;
29380;SDS011;16364;52.490;13.326;2024-01-30T05:42:09;11.43;;;6.73;;
29380;SDS011;16364;52.490;13.326;2024-01-30T05:44:35;10.43;;;6.40;;
29380;SDS011;16364;52.490;13.326;2024-01-30T05:47:00;9.17;;;6.00;;
29380;SDS011;16364;52.490;13.326;2024-01-30T05:49:25;7.83;;;6.00;;
29380;SDS011;16364;52.490;13.326;2024-01-30T05:51:50;6.93;;;5.47;;
29380;SDS011;16364;52.490;13.326;2024-01-30T05:54:16;8.67;;;6.67;;
29380;SDS011;16364;52.490;13.326;2024-01-30T05:56:41;7.27;;;5.90;;
29380;SDS011;16364;52.490;13.326;2024-01-30T05:59:06;9.83;;;6.30;;
29380;SDS011;16364;52.490;13.326;2024-01-30T06:01:31;8.30;;;6.70;;
29380;SDS011;16364;52.490;13.326;2024-01-30T06:03:57;6.80;;;5.60;;
29380;SDS011;16364;52.490;13.326;2024-01-30T06:06:22;6.57;;;5.20;;
29380;SDS011;16364;52.490;13.326;2024-01-30T06:08:47;6.77;;;5.67;;
29380;SDS011;16364;52.490;13.326;2024-01-30T06:11:12;7.37;;;5.33;;
29380;SDS011;16364;52.490;13.326;2024-01-30T06:13:38;12.43;;;6.63;;
29380;SDS011;16364;52.490;13.326;2024-01-30T06:16:03;7.53;;;5.40;;
29380;SDS011;16364;52.490;13.326;2024-01-30T06:18:29;8.80;;;6.40;;
29380;SDS011;16364;52.490;13.326;2024-01-30T06:20:56;7.87;;;6.53;;
29380;SDS011;16364;52.490;13.326;2024-01-30T06:23:21;12.00;;;6.63;;
29380;SDS011;16364;52.490;13.326;2024-01-30T06:25:46;9.10;;;6.33;;
29380;SDS011;16364;52.490;13.326;2024-01-30T06:28:12;15.40;;;7.77;;
29380;SDS011;16364;52.490;13.326;2024-01-30T06:30:37;9.07;;;7.37;;
29380;SDS011;16364;52.490;13.326;2024-01-30T06:33:02;9.23;;;7.40;;
29380;SDS011;16364;52.490;13.326;2024-01-30T06:35:28;8.97;;;6.40;;
29380;SDS011;16364;52.490;13.326;2024-01-30T06:37:54;6.80;;;6.17;;
29380;SDS011;16364;52.490;13.326;2024-01-30T06:40:19;7.90;;;6.00;;
29380;SDS011;16364;52.490;13.326;2024-01-30T06:42:44;9.43;;;6.40;;
29380;SDS011;16364;52.490;13.326;2024-01-30T06:45:09;13.03;;;7.80;;
29380;SDS011;16364;52.490;13.326;2024-01-30T06:47:35;10.60;;;8.13;;
29380;SDS011;16364;52.490;13.326;2024-01-30T06:50:00;9.47;;;7.17;;
29380;SDS011;16364;52.490;13.326;2024-01-30T06:52:27;8.60;;;6.70;;
29380;SDS011;16364;52.490;13.326;2024-01-30T06:54:52;9.67;;;6.93;;
29380;SDS011;16364;52.490;13.326;2024-01-30T06:57:17;9.93;;;6.50;;
29380;SDS011;16364;52.490;13.326;2024-01-30T06:59:43;8.40;;;6.17;;
29380;SDS011;16364;52.490;13.326;2024-01-30T07:02:09;8.80;;;5.93;;
29380;SDS011;16364;52.490;13.326;2024-01-30T07:04:34;12.60;;;6.40;;
29380;SDS011;16364;52.490;13.326;2024-01-30T07:07:02;7.70;;;6.60;;
29380;SDS011;16364;52.490;13.326;2024-01-30T07:09:27;12.57;;;6.80;;
29380;SDS011;16364;52.490;13.326;2024-01-30T07:11:54;10.23;;;5.90;;
29380;SDS011;16364;52.490;13.326;2024-01-30T07:14:20;10.30;;;6.60;;
29380;SDS011;16364;52.490;13.326;2024-01-30T07:16:45;12.40;;;7.40;;
29380;SDS011;16364;52.490;13.326;2024-01-30T07:19:11;9.93;;;7.17;;
29380;SDS011;16364;52.490;13.326;2024-01-30T07:21:36;7.40;;;5.97;;
29380;SDS011;16364;52.490;13.326;2024-01-30T07:24:01;8.80;;;6.83;;
29380;SDS011;16364;52.490;13.326;2024-01-30T07:26:27;8.20;;;6.33;;
29380;SDS011;16364;52.490;13.326;2024-01-30T07:28:52;13.73;;;7.00;;
29380;SDS011;16364;52.490;13.326;2024-01-30T07:31:17;8.47;;;6.87;;
29380;SDS011;16364;52.490;13.326;2024-01-30T07:33:45;11.03;;;6.73;;
29380;SDS011;16364;52.490;13.326;2024-01-30T07:36:10;11.53;;;6.40;;
29380;SDS011;16364;52.490;13.326;2024-01-30T07:38:36;8.63;;;6.40;;
29380;SDS011;16364;52.490;13.326;2024-01-30T07:41:01;7.70;;;6.30;;
29380;SDS011;16364;52.490;13.326;2024-01-30T07:43:26;14.30;;;7.03;;
29380;SDS011;16364;52.490;13.326;2024-01-30T07:45:51;9.80;;;7.13;;
29380;SDS011;16364;52.490;13.326;2024-01-30T07:48:17;10.37;;;6.97;;
29380;SDS011;16364;52.490;13.326;2024-01-30T07:50:42;9.53;;;6.40;;
29380;SDS011;16364;52.490;13.326;2024-01-30T07:53:07;12.07;;;6.70;;
29380;SDS011;16364;52.490;13.326;2024-01-30T07:55:32;13.23;;;8.10;;
29380;SDS011;16364;52.490;13.326;2024-01-30T07:57:58;10.87;;;7.27;;
29380;SDS011;16364;52.490;13.326;2024-01-30T08:00:26;14.00;;;7.40;;
29380;SDS011;16364;52.490;13.326;2024-01-30T08:02:51;14.23;;;8.03;;
29380;SDS011;16364;52.490;13.326;2024-01-30T08:05:19;9.93;;;7.53;;
29380;SDS011;16364;52.490;13.326;2024-01-30T08:07:44;8.93;;;6.40;;
29380;SDS011;16364;52.490;13.326;2024-01-30T08:10:11;9.67;;;5.90;;
29380;SDS011;16364;52.490;13.326;2024-01-30T08:12:36;12.37;;;8.27;;
29380;SDS011;16364;52.490;13.326;2024-01-30T08:15:01;12.50;;;9.03;;
29380;SDS011;16364;52.490;13.326;2024-01-30T08:17:28;12.67;;;8.03;;
29380;SDS011;16364;52.490;13.326;2024-01-30T08:19:53;11.03;;;7.20;;
29380;SDS011;16364;52.490;13.326;2024-01-30T08:22:18;9.90;;;6.60;;
29380;SDS011;16364;52.490;13.326;2024-01-30T08:24:44;9.10;;;6.80;;
29380;SDS011;16364;52.490;13.326;2024-01-30T08:27:09;10.13;;;7.17;;
29380;SDS011;16364;52.490;13.326;2024-01-30T08:29:35;9.97;;;7.30;;
29380;SDS011;16364;52.490;13.326;2024-01-30T08:32:00;10.00;;;7.53;;
29380;SDS011;16364;52.490;13.326;2024-01-30T08:34:26;16.20;;;9.43;;
29380;SDS011;16364;52.490;13.326;2024-01-30T08:36:51;11.60;;;8.03;;
29380;SDS011;16364;52.490;13.326;2024-01-30T08:39:16;8.80;;;6.90;;
29380;SDS011;16364;52.490;13.326;2024-01-30T08:41:41;8.80;;;7.43;;
29380;SDS011;16364;52.490;13.326;2024-01-30T08:44:07;10.33;;;6.83;;
29380;SDS011;16364;52.490;13.326;2024-01-30T08:46:32;10.73;;;7.37;;
29380;SDS011;16364;52.490;13.326;2024-01-30T08:48:57;10.93;;;7.80;;
29380;SDS011;16364;52.490;13.326;2024-01-30T08:51:23;14.70;;;6.80;;
29380;SDS011;16364;52.490;13.326;2024-01-30T08:53:48;8.43;;;7.10;;
29380;SDS011;16364;52.490;13.326;2024-01-30T08:56:13;10.53;;;7.23;;
29380;SDS011;16364;52.490;13.326;2024-01-30T08:58:39;8.97;;;7.83;;
29380;SDS011;16364;52.490;13.326;2024-01-30T09:01:04;8.63;;;6.63;;
29380;SDS011;16364;52.490;13.326;2024-01-30T09:03:30;11.10;;;7.53;;
29380;SDS011;16364;52.490;13.326;2024-01-30T09:05:56;10.23;;;6.93;;
29380;SDS011;16364;52.490;13.326;2024-01-30T09:08:21;13.40;;;6.97;;
29380;SDS011;16364;52.490;13.326;2024-01-30T09:10:46;7.90;;;6.37;;
29380;SDS011;16364;52.490;13.326;2024-01-30T09:13:11;10.40;;;7.10;;
29380;SDS011;16364;52.490;13.326;2024-01-30T09:15:37;8.83;;;6.23;;
29380;SDS011;16364;52.490;13.326;2024-01-30T09:18:02;12.33;;;7.90;;
29380;SDS011;16364;52.490;13.326;2024-01-30T09:20:27;10.83;;;7.63;;
29380;SDS011;16364;52.490;13.326;2024-01-30T09:22:52;14.63;;;7.60;;
29380;SDS011;16364;52.490;13.326;2024-01-30T09:25:18;8.60;;;6.77;;
29380;SDS011;16364;52.490;13.326;2024-01-30T09:27:43;9.50;;;6.67;;
29380;SDS011;16364;52.490;13.326;2024-01-30T09:30:09;10.90;;;6.93;;
29380;SDS011;16364;52.490;13.326;2024-01-30T09:32:34;12.07;;;7.27;;
29380;SDS011;16364;52.490;13.326;2024-01-30T09:34:59;9.83;;;6.50;;
29380;SDS011;16364;52.490;13.326;2024-01-30T09:37:25;8.80;;;6.60;;
29380;SDS011;16364;52.490;13.326;2024-01-30T09:39:50;11.43;;;6.60;;
29380;SDS011;16364;52.490;13.326;2024-01-30T09:44:50;11.13;;;7.80;;
29380;SDS011;16364;52.490;13.326;2024-01-30T09:47:15;11.73;;;7.13;;
29380;SDS011;16364;52.490;13.326;2024-01-30T09:49:41;8.83;;;7.20;;
29380;SDS011;16364;52.490;13.326;2024-01-30T09:52:08;11.00;;;6.43;;
29380;SDS011;16364;52.490;13.326;2024-01-30T09:54:33;8.67;;;6.73;;
29380;SDS011;16364;52.490;13.326;2024-01-30T09:56:59;9.30;;;6.93;;
29380;SDS011;16364;52.490;13.326;2024-01-30T09:59:24;11.37;;;7.07;;
29380;SDS011;16364;52.490;13.326;2024-01-30T10:01:50;8.03;;;7.03;;
29380;SDS011;16364;52.490;13.326;2024-01-30T10:04:15;8.17;;;5.90;;
29380;SDS011;16364;52.490;13.326;2024-01-30T10:06:40;6.60;;;6.00;;
29380;SDS011;16364;52.490;13.326;2024-01-30T10:09:06;8.97;;;6.10;;
29380;SDS011;16364;52.490;13.326;2024-01-30T10:11:32;15.83;;;6.93;;
29380;SDS011;16364;52.490;13.326;2024-01-30T10:13:57;10.77;;;7.03;;
29380;SDS011;16364;52.490;13.326;2024-01-30T10:16:22;12.10;;;6.90;;
29380;SDS011;16364;52.490;13.326;2024-01-30T10:18:48;9.30;;;6.10;;
29380;SDS011;16364;52.490;13.326;2024-01-30T10:21:14;9.07;;;6.67;;
29380;SDS011;16364;52.490;13.326;2024-01-30T10:23:39;9.50;;;5.60;;
29380;SDS011;16364;52.490;13.326;2024-01-30T10:26:04;6.40;;;5.47;;
29380;SDS011;16364;52.490;13.326;2024-01-30T10:28:29;8.67;;;5.90;;
29380;SDS011;16364;52.490;13.326;2024-01-30T10:31:01;7.90;;;6.10;;
29380;SDS011;16364;52.490;13.326;2024-01-30T10:33:28;13.53;;;6.20;;
29380;SDS011;16364;52.490;13.326;2024-01-30T10:36:03;7.53;;;5.10;;
29380;SDS011;16364;52.490;13.326;2024-01-30T10:38:29;8.43;;;5.80;;
29380;SDS011;16364;52.490;13.326;2024-01-30T10:40:58;6.33;;;5.23;;
29380;SDS011;16364;52.490;13.326;2024-01-30T10:43:26;6.90;;;6.00;;
29380;SDS011;16364;52.490;13.326;2024-01-30T10:45:53;7.73;;;5.77;;
29380;SDS011;16364;52.490;13.326;2024-01-30T10:48:21;9.50;;;5.73;;
29380;SDS011;16364;52.490;13.326;2024-01-30T10:50:50;6.63;;;5.20;;
29380;SDS011;16364;52.490;13.326;2024-01-30T10:53:16;8.00;;;6.00;;
29380;SDS011;16364;52.490;13.326;2024-01-30T10:55:42;7.97;;;5.57;;
29380;SDS011;16364;52.490;13.326;2024-01-30T10:58:08;7.27;;;5.30;;
29380;SDS011;16364;52.490;13.326;2024-01-30T11:00:36;6.63;;;5.80;;
29380;SDS011;16364;52.490;13.326;2024-01-30T11:03:02;9.60;;;4.83;;
29380;SDS011;16364;52.490;13.326;2024-01-30T11:08:10;6.57;;;5.33;;
29380;SDS011;16364;52.490;13.326;2024-01-30T11:10:44;5.77;;;4.97;;
29380;SDS011;16364;52.490;13.326;2024-01-30T11:13:13;6.67;;;4.93;;
29380;SDS011;16364;52.490;13.326;2024-01-30T11:15:38;9.30;;;4.97;;
29380;SDS011;16364;52.490;13.326;2024-01-30T11:18:05;12.00;;;5.23;;
29380;SDS011;16364;52.490;13.326;2024-01-30T11:20:31;7.60;;;5.60;;
29380;SDS011;16364;52.490;13.326;2024-01-30T11:22:57;6.63;;;5.80;;
29380;SDS011;16364;52.490;13.326;2024-01-30T11:25:23;9.20;;;5.20;;
29380;SDS011;16364;52.490;13.326;2024-01-30T11:27:51;11.73;;;5.20;;
29380;SDS011;16364;52.490;13.326;2024-01-30T11:30:27;8.20;;;4.73;;
29380;SDS011;16364;52.490;13.326;2024-01-30T11:32:59;8.30;;;5.23;;
29380;SDS011;16364;52.490;13.326;2024-01-30T11:35:24;6.40;;;5.23;;
29380;SDS011;16364;52.490;13.326;2024-01-30T11:37:50;6.53;;;4.93;;
29380;SDS011;16364;52.490;13.326;2024-01-30T11:40:15;10.90;;;5.73;;
29380;SDS011;16364;52.490;13.326;2024-01-30T11:42:41;6.20;;;5.37;;
29380;SDS011;16364;52.490;13.326;2024-01-30T11:45:07;9.47;;;5.63;;
29380;SDS011;16364;52.490;13.326;2024-01-30T11:47:34;8.07;;;6.07;;
29380;SDS011;16364;52.490;13.326;2024-01-30T11:49:59;6.37;;;5.80;;
29380;SDS011;16364;52.490;13.326;2024-01-30T11:52:25;7.77;;;5.60;;
29380;SDS011;16364;52.490;13.326;2024-01-30T11:54:50;6.03;;;5.20;;
29380;SDS011;16364;52.490;13.326;2024-01-30T11:57:15;11.30;;;6.37;;
29380;SDS011;16364;52.490;13.326;2024-01-30T11:59:41;6.90;;;6.20;;
29380;SDS011;16364;52.490;13.326;2024-01-30T12:02:06;8.37;;;6.40;;
29380;SDS011;16364;52.490;13.326;2024-01-30T12:04:31;6.07;;;5.47;;
29380;SDS011;16364;52.490;13.326;2024-01-30T12:06:56;9.33;;;6.43;;
29380;SDS011;16364;52.490;13.326;2024-01-30T12:09:22;7.87;;;5.90;;
29380;SDS011;16364;52.490;13.326;2024-01-30T12:11:48;7.10;;;6.27;;
29380;SDS011;16364;52.490;13.326;2024-01-30T12:14:14;7.70;;;5.60;;
29380;SDS011;16364;52.490;13.326;2024-01-30T12:16:40;10.80;;;6.33;;
29380;SDS011;16364;52.490;13.326;2024-01-30T12:19:06;11.03;;;6.40;;
29380;SDS011;16364;52.490;13.326;2024-01-30T12:21:31;8.00;;;6.33;;
29380;SDS011;16364;52.490;13.326;2024-01-30T12:23:57;6.60;;;5.90;;
29380;SDS011;16364;52.490;13.326;2024-01-30T12:26:23;8.70;;;6.13;;
29380;SDS011;16364;52.490;13.326;2024-01-30T12:28:48;9.37;;;5.77;;
29380;SDS011;16364;52.490;13.326;2024-01-30T12:31:15;9.10;;;6.50;;
29380;SDS011;16364;52.490;13.326;2024-01-30T12:33:40;8.17;;;6.00;;
29380;SDS011;16364;52.490;13.326;2024-01-30T12:36:05;7.90;;;6.43;;
29380;SDS011;16364;52.490;13.326;2024-01-30T12:38:30;10.43;;;5.73;;
29380;SDS011;16364;52.490;13.326;2024-01-30T12:40:56;7.00;;;5.80;;
29380;SDS011;16364;52.490;13.326;2024-01-30T12:43:22;7.73;;;6.10;;
29380;SDS011;16364;52.490;13.326;2024-01-30T12:45:47;8.47;;;6.17;;
29380;SDS011;16364;52.490;13.326;2024-01-30T12:48:12;9.27;;;6.13;;
29380;SDS011;16364;52.490;13.326;2024-01-30T12:50:38;7.50;;;5.60;;
29380;SDS011;16364;52.490;13.326;2024-01-30T12:53:03;9.47;;;6.70;;
29380;SDS011;16364;52.490;13.326;2024-01-30T12:55:29;8.57;;;6.00;;
29380;SDS011;16364;52.490;13.326;2024-01-30T12:57:55;10.17;;;6.67;;
29380;SDS011;16364;52.490;13.326;2024-01-30T13:00:20;8.40;;;6.30;;
29380;SDS011;16364;52.490;13.326;2024-01-30T13:02:47;7.90;;;6.10;;
29380;SDS011;16364;52.490;13.326;2024-01-30T13:05:12;12.70;;;6.83;;
29380;SDS011;16364;52.490;13.326;2024-01-30T13:07:37;9.20;;;6.83;;
29380;SDS011;16364;52.490;13.326;2024-01-30T13:10:03;9.63;;;5.47;;
29380;SDS011;16364;52.490;13.326;2024-01-30T13:12:29;11.73;;;6.20;;
29380;SDS011;16364;52.490;13.326;2024-01-30T13:14:54;6.50;;;5.80;;
29380;SDS011;16364;52.490;13.326;2024-01-30T13:17:20;15.70;;;6.23;;
29380;SDS011;16364;52.490;13.326;2024-01-30T13:19:45;11.53;;;6.30;;
29380;SDS011;16364;52.490;13.326;2024-01-30T13:22:10;10.43;;;6.50;;
29380;SDS011;16364;52.490;13.326;2024-01-30T13:24:36;8.80;;;6.37;;
29380;SDS011;16364;52.490;13.326;2024-01-30T13:27:01;10.43;;;6.40;;
29380;SDS011;16364;52.490;13.326;2024-01-30T13:29:26;10.73;;;7.23;;
29380;SDS011;16364;52.490;13.326;2024-01-30T13:31:51;9.37;;;7.10;;
29380;SDS011;16364;52.490;13.326;2024-01-30T13:34:16;9.67;;;6.73;;
29380;SDS011;16364;52.490;13.326;2024-01-30T13:36:42;6.73;;;5.97;;
29380;SDS011;16364;52.490;13.326;2024-01-30T13:39:08;9.70;;;6.07;;
29380;SDS011;16364;52.490;13.326;2024-01-30T13:41:35;7.53;;;6.50;;
29380;SDS011;16364;52.490;13.326;2024-01-30T13:44:01;12.03;;;7.37;;
29380;SDS011;16364;52.490;13.326;2024-01-30T13:46:28;12.23;;;6.57;;
29380;SDS011;16364;52.490;13.326;2024-01-30T13:48:53;7.50;;;6.07;;
29380;SDS011;16364;52.490;13.326;2024-01-30T13:51:18;11.23;;;6.90;;
29380;SDS011;16364;52.490;13.326;2024-01-30T13:53:44;9.23;;;5.60;;
29380;SDS011;16364;52.490;13.326;2024-01-30T13:56:09;11.73;;;5.30;;
29380;SDS011;16364;52.490;13.326;2024-01-30T13:58:34;9.00;;;6.63;;
29380;SDS011;16364;52.490;13.326;2024-01-30T14:01:01;7.70;;;6.90;;
29380;SDS011;16364;52.490;13.326;2024-01-30T14:03:26;7.10;;;6.00;;
29380;SDS011;16364;52.490;13.326;2024-01-30T14:05:51;9.73;;;6.20;;
29380;SDS011;16364;52.490;13.326;2024-01-30T14:08:17;9.20;;;6.73;;
29380;SDS011;16364;52.490;13.326;2024-01-30T14:10:42;9.80;;;6.40;;
29380;SDS011;16364;52.490;13.326;2024-01-30T14:13:07;6.77;;;5.60;;
29380;SDS011;16364;52.490;13.326;2024-01-30T14:15:35;11.10;;;6.70;;
29380;SDS011;16364;52.490;13.326;2024-01-30T14:18:05;7.77;;;6.10;;
29380;SDS011;16364;52.490;13.326;2024-01-30T14:20:33;7.60;;;5.67;;
29380;SDS011;16364;52.490;13.326;2024-01-30T14:22:59;9.30;;;5.60;;
29380;SDS011;16364;52.490;13.326;2024-01-30T14:25:24;8.97;;;5.77;;